sensor_id;sensor_type;location;lat;lon;timestamp;temperature;humidity
37204;DHT22;23098;48.054;10.636;2022-11-20T00:01:23;5.00;99.90
37204;DHT22;23098;48.054;10.636;2022-11-20T00:03:51;5.00;99.90
37204;DHT22;23098;48.054;10.636;2022-11-20T00:06:18;5.10;99.90
37204;DHT22;23098;48.054;10.636;2022-11-20T00:08:45;5.10;99.90
37204;DHT22;23098;48.054;10.636;2022-11-20T00:11:16;5.10;99.90
37204;DHT22;23098;48.054;10.636;2022-11-20T00:13:47;5.10;99.90
37204;DHT22;23098;48.054;10.636;2022-11-20T00:16:15;5.10;99.90
37204;DHT22;23098;48.054;10.636;2022-11-20T00:18:40;5.10;99.90
37204;DHT22;23098;48.054;10.636;2022-11-20T00:21:11;5.10;99.90
37204;DHT22;23098;48.054;10.636;2022-11-20T00:23:37;5.20;99.90
37204;DHT22;23098;48.054;10.636;2022-11-20T00:26:05;5.20;99.90
37204;DHT22;23098;48.054;10.636;2022-11-20T00:28:31;5.20;99.90
37204;DHT22;23098;48.054;10.636;2022-11-20T00:31:08;5.20;99.90
37204;DHT22;23098;48.054;10.636;2022-11-20T00:33:34;5.20;99.90
37204;DHT22;23098;48.054;10.636;2022-11-20T00:36:20;5.20;99.90
37204;DHT22;23098;48.054;10.636;2022-11-20T00:38:46;5.20;99.90
37204;DHT22;23098;48.054;10.636;2022-11-20T00:41:14;5.20;99.90
37204;DHT22;23098;48.054;10.636;2022-11-20T00:43:41;5.20;99.90
37204;DHT22;23098;48.054;10.636;2022-11-20T00:46:09;5.20;99.90
37204;DHT22;23098;48.054;10.636;2022-11-20T00:48:35;5.10;99.90
37204;DHT22;23098;48.054;10.636;2022-11-20T00:51:01;5.10;99.90
37204;DHT22;23098;48.054;10.636;2022-11-20T00:53:27;5.10;99.90
37204;DHT22;23098;48.054;10.636;2022-11-20T00:56:00;5.10;99.90
37204;DHT22;23098;48.054;10.636;2022-11-20T00:58:30;5.10;99.90
37204;DHT22;23098;48.054;10.636;2022-11-20T01:01:08;5.10;99.90
37204;DHT22;23098;48.054;10.636;2022-11-20T01:03:40;5.10;99.90
37204;DHT22;23098;48.054;10.636;2022-11-20T01:06:14;5.10;99.90
37204;DHT22;23098;48.054;10.636;2022-11-20T01:08:40;5.10;99.90
37204;DHT22;23098;48.054;10.636;2022-11-20T01:11:09;5.10;99.90
37204;DHT22;23098;48.054;10.636;2022-11-20T01:13:35;5.10;99.90
37204;DHT22;23098;48.054;10.636;2022-11-20T01:16:05;5.10;99.90
37204;DHT22;23098;48.054;10.636;2022-11-20T01:18:31;5.10;99.90
37204;DHT22;23098;48.054;10.636;2022-11-20T01:21:07;5.10;99.90
37204;DHT22;23098;48.054;10.636;2022-11-20T01:23:38;5.10;99.90
37204;DHT22;23098;48.054;10.636;2022-11-20T01:26:05;5.00;99.90
37204;DHT22;23098;48.054;10.636;2022-11-20T01:28:31;5.00;99.90
37204;DHT22;23098;48.054;10.636;2022-11-20T01:30:57;4.90;99.90
37204;DHT22;23098;48.054;10.636;2022-11-20T01:33:22;4.90;99.90
37204;DHT22;23098;48.054;10.636;2022-11-20T01:35:48;5.00;99.90
37204;DHT22;23098;48.054;10.636;2022-11-20T01:38:15;4.90;99.90
37204;DHT22;23098;48.054;10.636;2022-11-20T01:40:41;4.90;99.90
37204;DHT22;23098;48.054;10.636;2022-11-20T01:43:20;4.80;99.90
37204;DHT22;23098;48.054;10.636;2022-11-20T01:46:02;4.80;99.90
37204;DHT22;23098;48.054;10.636;2022-11-20T01:48:40;4.70;99.90
37204;DHT22;23098;48.054;10.636;2022-11-20T01:51:15;4.70;99.90
37204;DHT22;23098;48.054;10.636;2022-11-20T01:53:43;4.70;99.90
37204;DHT22;23098;48.054;10.636;2022-11-20T01:56:10;4.70;99.90
37204;DHT22;23098;48.054;10.636;2022-11-20T01:58:40;4.70;99.90
37204;DHT22;23098;48.054;10.636;2022-11-20T02:01:07;4.70;99.90
37204;DHT22;23098;48.054;10.636;2022-11-20T02:03:32;4.80;99.90
37204;DHT22;23098;48.054;10.636;2022-11-20T02:06:16;4.80;99.90
37204;DHT22;23098;48.054;10.636;2022-11-20T02:08:42;4.80;99.90
37204;DHT22;23098;48.054;10.636;2022-11-20T02:11:09;4.80;99.90
37204;DHT22;23098;48.054;10.636;2022-11-20T02:13:34;4.80;99.90
37204;DHT22;23098;48.054;10.636;2022-11-20T02:16:24;4.90;99.90
37204;DHT22;23098;48.054;10.636;2022-11-20T02:18:50;4.90;99.90
37204;DHT22;23098;48.054;10.636;2022-11-20T02:26:41;4.90;99.90
37204;DHT22;23098;48.054;10.636;2022-11-20T02:29:08;5.00;99.90
37204;DHT22;23098;48.054;10.636;2022-11-20T02:31:41;5.00;99.90
37204;DHT22;23098;48.054;10.636;2022-11-20T02:34:07;4.90;99.90
37204;DHT22;23098;48.054;10.636;2022-11-20T02:36:36;5.00;99.90
37204;DHT22;23098;48.054;10.636;2022-11-20T02:39:03;5.00;99.90
37204;DHT22;23098;48.054;10.636;2022-11-20T02:41:37;5.00;99.90
37204;DHT22;23098;48.054;10.636;2022-11-20T02:44:04;5.00;99.90
37204;DHT22;23098;48.054;10.636;2022-11-20T02:46:30;5.00;99.90
37204;DHT22;23098;48.054;10.636;2022-11-20T02:48:56;5.00;99.90
37204;DHT22;23098;48.054;10.636;2022-11-20T02:51:21;5.00;99.90
37204;DHT22;23098;48.054;10.636;2022-11-20T02:53:47;5.00;99.90
37204;DHT22;23098;48.054;10.636;2022-11-20T02:56:13;5.00;99.90
37204;DHT22;23098;48.054;10.636;2022-11-20T02:58:38;5.00;99.90
37204;DHT22;23098;48.054;10.636;2022-11-20T03:01:04;5.00;99.90
37204;DHT22;23098;48.054;10.636;2022-11-20T03:03:31;5.00;99.90
37204;DHT22;23098;48.054;10.636;2022-11-20T03:05:58;5.00;99.90
37204;DHT22;23098;48.054;10.636;2022-11-20T03:08:24;5.00;99.90
37204;DHT22;23098;48.054;10.636;2022-11-20T03:10:50;5.00;99.90
37204;DHT22;23098;48.054;10.636;2022-11-20T03:13:15;4.90;99.90
37204;DHT22;23098;48.054;10.636;2022-11-20T03:15:41;5.00;99.90
37204;DHT22;23098;48.054;10.636;2022-11-20T03:18:06;5.00;99.90
37204;DHT22;23098;48.054;10.636;2022-11-20T03:20:33;5.00;99.90
37204;DHT22;23098;48.054;10.636;2022-11-20T03:22:59;4.90;99.90
37204;DHT22;23098;48.054;10.636;2022-11-20T03:25:24;4.90;99.90
37204;DHT22;23098;48.054;10.636;2022-11-20T03:27:50;4.90;99.90
37204;DHT22;23098;48.054;10.636;2022-11-20T03:30:16;4.90;99.90
37204;DHT22;23098;48.054;10.636;2022-11-20T03:32:41;4.90;99.90
37204;DHT22;23098;48.054;10.636;2022-11-20T03:35:09;4.90;99.90
37204;DHT22;23098;48.054;10.636;2022-11-20T03:37:34;4.90;99.90
37204;DHT22;23098;48.054;10.636;2022-11-20T03:40:00;4.90;99.90
37204;DHT22;23098;48.054;10.636;2022-11-20T03:42:25;4.90;99.90
37204;DHT22;23098;48.054;10.636;2022-11-20T03:45:09;4.90;99.90
37204;DHT22;23098;48.054;10.636;2022-11-20T03:47:35;4.90;99.90
37204;DHT22;23098;48.054;10.636;2022-11-20T03:50:00;4.90;99.90
37204;DHT22;23098;48.054;10.636;2022-11-20T03:52:26;4.90;99.90
37204;DHT22;23098;48.054;10.636;2022-11-20T03:54:51;4.90;99.90
37204;DHT22;23098;48.054;10.636;2022-11-20T03:57:17;4.90;99.90
37204;DHT22;23098;48.054;10.636;2022-11-20T03:59:42;4.90;99.90
37204;DHT22;23098;48.054;10.636;2022-11-20T04:02:08;4.90;99.90
37204;DHT22;23098;48.054;10.636;2022-11-20T04:04:33;4.90;99.90
37204;DHT22;23098;48.054;10.636;2022-11-20T04:06:59;4.90;99.90
37204;DHT22;23098;48.054;10.636;2022-11-20T04:09:24;4.90;99.90
37204;DHT22;23098;48.054;10.636;2022-11-20T04:11:50;4.90;99.90
37204;DHT22;23098;48.054;10.636;2022-11-20T04:14:15;4.90;99.90
37204;DHT22;23098;48.054;10.636;2022-11-20T04:16:42;4.90;99.90
37204;DHT22;23098;48.054;10.636;2022-11-20T04:19:13;4.90;99.90
37204;DHT22;23098;48.054;10.636;2022-11-20T04:21:39;4.90;99.90
37204;DHT22;23098;48.054;10.636;2022-11-20T04:24:05;4.80;99.90
37204;DHT22;23098;48.054;10.636;2022-11-20T04:26:31;4.90;99.90
37204;DHT22;23098;48.054;10.636;2022-11-20T04:28:57;4.90;99.90
37204;DHT22;23098;48.054;10.636;2022-11-20T04:31:26;4.80;99.90
37204;DHT22;23098;48.054;10.636;2022-11-20T04:33:52;4.80;99.90
37204;DHT22;23098;48.054;10.636;2022-11-20T04:36:25;4.80;99.90
37204;DHT22;23098;48.054;10.636;2022-11-20T04:38:54;4.80;99.90
37204;DHT22;23098;48.054;10.636;2022-11-20T04:41:22;4.80;99.90
37204;DHT22;23098;48.054;10.636;2022-11-20T04:43:49;4.80;99.90
37204;DHT22;23098;48.054;10.636;2022-11-20T04:46:16;4.80;99.90
37204;DHT22;23098;48.054;10.636;2022-11-20T04:48:43;4.80;99.90
37204;DHT22;23098;48.054;10.636;2022-11-20T04:51:09;4.80;99.90
37204;DHT22;23098;48.054;10.636;2022-11-20T04:53:34;4.80;99.90
37204;DHT22;23098;48.054;10.636;2022-11-20T04:56:05;4.80;99.90
37204;DHT22;23098;48.054;10.636;2022-11-20T04:58:32;4.70;99.90
37204;DHT22;23098;48.054;10.636;2022-11-20T05:01:02;4.70;99.90
37204;DHT22;23098;48.054;10.636;2022-11-20T05:03:28;4.70;99.90
37204;DHT22;23098;48.054;10.636;2022-11-20T05:05:54;4.70;99.90
37204;DHT22;23098;48.054;10.636;2022-11-20T05:08:19;4.80;99.90
37204;DHT22;23098;48.054;10.636;2022-11-20T05:10:45;4.70;99.90
37204;DHT22;23098;48.054;10.636;2022-11-20T05:13:12;4.80;99.90
37204;DHT22;23098;48.054;10.636;2022-11-20T05:15:37;4.80;99.90
37204;DHT22;23098;48.054;10.636;2022-11-20T05:18:03;4.80;99.90
37204;DHT22;23098;48.054;10.636;2022-11-20T05:20:29;4.70;99.90
37204;DHT22;23098;48.054;10.636;2022-11-20T05:22:57;4.70;99.90
37204;DHT22;23098;48.054;10.636;2022-11-20T05:25:22;4.70;99.90
37204;DHT22;23098;48.054;10.636;2022-11-20T05:27:48;4.70;99.90
37204;DHT22;23098;48.054;10.636;2022-11-20T05:30:14;4.60;99.90
37204;DHT22;23098;48.054;10.636;2022-11-20T05:32:39;4.70;99.90
37204;DHT22;23098;48.054;10.636;2022-11-20T05:35:05;4.70;99.90
37204;DHT22;23098;48.054;10.636;2022-11-20T05:37:31;4.70;99.90
37204;DHT22;23098;48.054;10.636;2022-11-20T05:39:56;4.70;99.90
37204;DHT22;23098;48.054;10.636;2022-11-20T05:42:22;4.70;99.90
37204;DHT22;23098;48.054;10.636;2022-11-20T05:45:01;4.60;99.90
37204;DHT22;23098;48.054;10.636;2022-11-20T05:47:32;4.70;99.90
37204;DHT22;23098;48.054;10.636;2022-11-20T05:49:58;4.70;99.90
37204;DHT22;23098;48.054;10.636;2022-11-20T05:52:24;4.60;99.90
37204;DHT22;23098;48.054;10.636;2022-11-20T05:54:50;4.60;99.90
37204;DHT22;23098;48.054;10.636;2022-11-20T05:57:16;4.60;99.90
37204;DHT22;23098;48.054;10.636;2022-11-20T05:59:41;4.50;99.90
37204;DHT22;23098;48.054;10.636;2022-11-20T06:02:07;4.50;99.90
37204;DHT22;23098;48.054;10.636;2022-11-20T06:04:32;4.50;99.90
37204;DHT22;23098;48.054;10.636;2022-11-20T06:06:58;4.50;99.90
37204;DHT22;23098;48.054;10.636;2022-11-20T06:09:23;4.50;99.90
37204;DHT22;23098;48.054;10.636;2022-11-20T06:11:49;4.50;99.90
37204;DHT22;23098;48.054;10.636;2022-11-20T06:14:14;4.60;99.90
37204;DHT22;23098;48.054;10.636;2022-11-20T06:16:40;4.60;99.90
37204;DHT22;23098;48.054;10.636;2022-11-20T06:19:05;4.70;99.90
37204;DHT22;23098;48.054;10.636;2022-11-20T06:21:31;4.70;99.90
37204;DHT22;23098;48.054;10.636;2022-11-20T06:23:56;4.80;99.90
37204;DHT22;23098;48.054;10.636;2022-11-20T06:26:24;4.80;99.90
37204;DHT22;23098;48.054;10.636;2022-11-20T06:28:51;4.80;99.90
37204;DHT22;23098;48.054;10.636;2022-11-20T06:31:19;4.80;99.90
37204;DHT22;23098;48.054;10.636;2022-11-20T06:33:45;4.80;99.90
37204;DHT22;23098;48.054;10.636;2022-11-20T06:36:13;4.80;99.90
37204;DHT22;23098;48.054;10.636;2022-11-20T06:38:39;4.80;99.90
37204;DHT22;23098;48.054;10.636;2022-11-20T06:41:06;4.80;99.90
37204;DHT22;23098;48.054;10.636;2022-11-20T06:43:31;4.80;99.90
37204;DHT22;23098;48.054;10.636;2022-11-20T06:45:58;4.80;99.90
37204;DHT22;23098;48.054;10.636;2022-11-20T06:48:25;4.80;99.90
37204;DHT22;23098;48.054;10.636;2022-11-20T06:50:51;4.80;99.90
37204;DHT22;23098;48.054;10.636;2022-11-20T06:53:17;4.90;99.90
37204;DHT22;23098;48.054;10.636;2022-11-20T06:55:44;4.90;99.90
37204;DHT22;23098;48.054;10.636;2022-11-20T06:58:10;4.90;99.90
37204;DHT22;23098;48.054;10.636;2022-11-20T07:00:35;4.90;99.90
37204;DHT22;23098;48.054;10.636;2022-11-20T07:03:05;4.90;99.90
37204;DHT22;23098;48.054;10.636;2022-11-20T07:05:30;4.90;99.90
37204;DHT22;23098;48.054;10.636;2022-11-20T07:07:57;4.90;99.90
37204;DHT22;23098;48.054;10.636;2022-11-20T07:10:22;5.00;99.90
37204;DHT22;23098;48.054;10.636;2022-11-20T07:12:52;5.00;99.90
37204;DHT22;23098;48.054;10.636;2022-11-20T07:15:19;5.00;99.90
37204;DHT22;23098;48.054;10.636;2022-11-20T07:17:44;5.00;99.90
37204;DHT22;23098;48.054;10.636;2022-11-20T07:20:10;5.00;99.90
37204;DHT22;23098;48.054;10.636;2022-11-20T07:22:36;5.10;99.90
37204;DHT22;23098;48.054;10.636;2022-11-20T07:25:01;5.00;99.90
37204;DHT22;23098;48.054;10.636;2022-11-20T07:27:27;5.10;99.90
37204;DHT22;23098;48.054;10.636;2022-11-20T07:29:53;5.10;99.90
37204;DHT22;23098;48.054;10.636;2022-11-20T07:32:19;5.10;99.90
37204;DHT22;23098;48.054;10.636;2022-11-20T07:34:44;5.10;99.90
37204;DHT22;23098;48.054;10.636;2022-11-20T07:37:10;5.10;99.90
37204;DHT22;23098;48.054;10.636;2022-11-20T07:39:35;5.10;99.90
37204;DHT22;23098;48.054;10.636;2022-11-20T07:42:01;5.10;99.90
37204;DHT22;23098;48.054;10.636;2022-11-20T07:44:26;5.20;99.90
37204;DHT22;23098;48.054;10.636;2022-11-20T07:46:52;5.20;99.90
37204;DHT22;23098;48.054;10.636;2022-11-20T07:49:17;5.30;99.90
37204;DHT22;23098;48.054;10.636;2022-11-20T07:51:43;5.30;99.90
37204;DHT22;23098;48.054;10.636;2022-11-20T07:54:08;5.30;99.90
37204;DHT22;23098;48.054;10.636;2022-11-20T07:56:34;5.40;99.90
37204;DHT22;23098;48.054;10.636;2022-11-20T07:58:59;5.50;99.90
37204;DHT22;23098;48.054;10.636;2022-11-20T08:01:25;5.50;99.90
37204;DHT22;23098;48.054;10.636;2022-11-20T08:03:50;5.50;99.90
37204;DHT22;23098;48.054;10.636;2022-11-20T08:06:16;5.50;99.90
37204;DHT22;23098;48.054;10.636;2022-11-20T08:08:42;5.50;99.90
37204;DHT22;23098;48.054;10.636;2022-11-20T08:11:08;5.60;99.90
37204;DHT22;23098;48.054;10.636;2022-11-20T08:13:52;5.70;99.90
37204;DHT22;23098;48.054;10.636;2022-11-20T08:16:36;5.60;99.90
37204;DHT22;23098;48.054;10.636;2022-11-20T08:19:02;5.70;99.90
37204;DHT22;23098;48.054;10.636;2022-11-20T08:21:28;5.80;99.90
37204;DHT22;23098;48.054;10.636;2022-11-20T08:23:53;5.80;99.90
37204;DHT22;23098;48.054;10.636;2022-11-20T08:26:20;5.80;99.90
37204;DHT22;23098;48.054;10.636;2022-11-20T08:28:45;5.80;99.90
37204;DHT22;23098;48.054;10.636;2022-11-20T08:31:12;5.80;99.90
37204;DHT22;23098;48.054;10.636;2022-11-20T08:33:37;5.90;99.90
37204;DHT22;23098;48.054;10.636;2022-11-20T08:36:03;5.90;99.90
37204;DHT22;23098;48.054;10.636;2022-11-20T08:38:30;5.90;99.90
37204;DHT22;23098;48.054;10.636;2022-11-20T08:40:57;6.00;99.90
37204;DHT22;23098;48.054;10.636;2022-11-20T08:43:42;6.00;99.90
37204;DHT22;23098;48.054;10.636;2022-11-20T08:46:07;6.10;99.90
37204;DHT22;23098;48.054;10.636;2022-11-20T08:48:33;6.20;99.90
37204;DHT22;23098;48.054;10.636;2022-11-20T08:50:58;6.20;99.90
37204;DHT22;23098;48.054;10.636;2022-11-20T08:53:25;6.20;99.90
37204;DHT22;23098;48.054;10.636;2022-11-20T08:55:50;6.10;99.90
37204;DHT22;23098;48.054;10.636;2022-11-20T08:58:16;6.10;99.90
37204;DHT22;23098;48.054;10.636;2022-11-20T09:00:41;6.00;99.90
37204;DHT22;23098;48.054;10.636;2022-11-20T09:03:07;6.00;99.90
37204;DHT22;23098;48.054;10.636;2022-11-20T09:05:32;6.10;99.90
37204;DHT22;23098;48.054;10.636;2022-11-20T09:07:58;6.40;99.90
37204;DHT22;23098;48.054;10.636;2022-11-20T09:10:25;6.50;99.90
37204;DHT22;23098;48.054;10.636;2022-11-20T09:12:51;6.50;99.90
37204;DHT22;23098;48.054;10.636;2022-11-20T09:15:17;6.50;99.90
37204;DHT22;23098;48.054;10.636;2022-11-20T09:17:51;6.90;99.90
37204;DHT22;23098;48.054;10.636;2022-11-20T09:20:16;7.10;99.90
37204;DHT22;23098;48.054;10.636;2022-11-20T09:22:42;7.20;99.90
37204;DHT22;23098;48.054;10.636;2022-11-20T09:25:08;7.40;99.90
37204;DHT22;23098;48.054;10.636;2022-11-20T09:27:33;7.60;99.90
37204;DHT22;23098;48.054;10.636;2022-11-20T09:29:59;7.90;99.90
37204;DHT22;23098;48.054;10.636;2022-11-20T09:32:24;8.30;99.90
37204;DHT22;23098;48.054;10.636;2022-11-20T09:34:50;8.00;99.90
37204;DHT22;23098;48.054;10.636;2022-11-20T09:37:15;8.00;99.90
37204;DHT22;23098;48.054;10.636;2022-11-20T09:39:41;7.80;99.90
37204;DHT22;23098;48.054;10.636;2022-11-20T09:42:35;8.00;99.90
37204;DHT22;23098;48.054;10.636;2022-11-20T09:51:06;8.00;99.90
37204;DHT22;23098;48.054;10.636;2022-11-20T09:53:56;7.40;99.90
37204;DHT22;23098;48.054;10.636;2022-11-20T09:56:26;6.80;99.90
37204;DHT22;23098;48.054;10.636;2022-11-20T09:58:54;6.80;99.90
37204;DHT22;23098;48.054;10.636;2022-11-20T10:01:23;6.60;99.90
37204;DHT22;23098;48.054;10.636;2022-11-20T10:04:01;6.50;99.90
37204;DHT22;23098;48.054;10.636;2022-11-20T10:09:30;6.40;99.90
37204;DHT22;23098;48.054;10.636;2022-11-20T10:15:10;6.40;99.90
37204;DHT22;23098;48.054;10.636;2022-11-20T10:18:08;6.30;99.90
37204;DHT22;23098;48.054;10.636;2022-11-20T10:20:46;6.30;99.90
37204;DHT22;23098;48.054;10.636;2022-11-20T10:26:17;6.30;99.90
37204;DHT22;23098;48.054;10.636;2022-11-20T10:31:45;6.30;99.90
37204;DHT22;23098;48.054;10.636;2022-11-20T10:37:15;6.30;99.90
37204;DHT22;23098;48.054;10.636;2022-11-20T10:42:20;6.40;99.90
37204;DHT22;23098;48.054;10.636;2022-11-20T10:44:52;6.50;99.90
37204;DHT22;23098;48.054;10.636;2022-11-20T10:47:30;6.60;99.90
37204;DHT22;23098;48.054;10.636;2022-11-20T10:49:58;6.60;99.90
37204;DHT22;23098;48.054;10.636;2022-11-20T10:52:42;6.70;99.90
37204;DHT22;23098;48.054;10.636;2022-11-20T10:55:30;7.00;99.90
37204;DHT22;23098;48.054;10.636;2022-11-20T10:58:13;7.00;99.90
37204;DHT22;23098;48.054;10.636;2022-11-20T11:00:39;6.90;99.90
37204;DHT22;23098;48.054;10.636;2022-11-20T11:03:24;6.90;99.90
37204;DHT22;23098;48.054;10.636;2022-11-20T11:05:56;6.80;99.90
37204;DHT22;23098;48.054;10.636;2022-11-20T11:08:28;6.80;99.90
37204;DHT22;23098;48.054;10.636;2022-11-20T11:10:57;6.60;99.90
37204;DHT22;23098;48.054;10.636;2022-11-20T11:13:25;6.50;99.90
37204;DHT22;23098;48.054;10.636;2022-11-20T11:15:53;6.50;99.90
37204;DHT22;23098;48.054;10.636;2022-11-20T11:18:27;6.50;99.90
37204;DHT22;23098;48.054;10.636;2022-11-20T11:20:54;6.50;99.90
37204;DHT22;23098;48.054;10.636;2022-11-20T11:23:38;6.30;99.90
37204;DHT22;23098;48.054;10.636;2022-11-20T11:26:07;6.20;99.90
37204;DHT22;23098;48.054;10.636;2022-11-20T11:28:59;6.10;99.90
37204;DHT22;23098;48.054;10.636;2022-11-20T11:31:29;6.10;99.90
37204;DHT22;23098;48.054;10.636;2022-11-20T11:34:06;6.00;99.90
37204;DHT22;23098;48.054;10.636;2022-11-20T11:36:33;6.00;99.90
37204;DHT22;23098;48.054;10.636;2022-11-20T11:39:00;5.90;99.90
37204;DHT22;23098;48.054;10.636;2022-11-20T11:41:31;5.70;99.90
37204;DHT22;23098;48.054;10.636;2022-11-20T11:44:02;5.60;99.90
37204;DHT22;23098;48.054;10.636;2022-11-20T11:46:55;5.60;99.90
37204;DHT22;23098;48.054;10.636;2022-11-20T11:49:22;5.60;99.90
37204;DHT22;23098;48.054;10.636;2022-11-20T11:52:13;5.60;99.90
37204;DHT22;23098;48.054;10.636;2022-11-20T11:54:50;5.80;99.90
37204;DHT22;23098;48.054;10.636;2022-11-20T11:57:29;5.90;99.90
37204;DHT22;23098;48.054;10.636;2022-11-20T12:00:08;5.90;99.90
37204;DHT22;23098;48.054;10.636;2022-11-20T12:05:25;5.90;99.90
37204;DHT22;23098;48.054;10.636;2022-11-20T12:10:41;5.80;99.90
37204;DHT22;23098;48.054;10.636;2022-11-20T12:13:37;5.90;99.90
37204;DHT22;23098;48.054;10.636;2022-11-20T12:16:05;5.90;99.90
37204;DHT22;23098;48.054;10.636;2022-11-20T12:18:32;5.90;99.90
37204;DHT22;23098;48.054;10.636;2022-11-20T12:21:12;5.90;99.90
37204;DHT22;23098;48.054;10.636;2022-11-20T12:24:12;5.90;99.90
37204;DHT22;23098;48.054;10.636;2022-11-20T12:30:09;5.90;99.90
37204;DHT22;23098;48.054;10.636;2022-11-20T12:32:44;6.00;99.90
37204;DHT22;23098;48.054;10.636;2022-11-20T12:44:51;6.00;99.90
37204;DHT22;23098;48.054;10.636;2022-11-20T12:50:46;6.10;99.90
37204;DHT22;23098;48.054;10.636;2022-11-20T12:56:28;6.20;99.90
37204;DHT22;23098;48.054;10.636;2022-11-20T13:02:08;6.30;99.90
37204;DHT22;23098;48.054;10.636;2022-11-20T13:07:26;6.40;99.90
37204;DHT22;23098;48.054;10.636;2022-11-20T13:09:53;6.40;99.90
37204;DHT22;23098;48.054;10.636;2022-11-20T13:12:31;6.50;99.90
37204;DHT22;23098;48.054;10.636;2022-11-20T13:18:02;6.40;99.90
37204;DHT22;23098;48.054;10.636;2022-11-20T13:20:30;6.40;99.90
37204;DHT22;23098;48.054;10.636;2022-11-20T13:22:57;6.30;99.90
37204;DHT22;23098;48.054;10.636;2022-11-20T13:25:30;6.20;99.90
37204;DHT22;23098;48.054;10.636;2022-11-20T13:28:00;6.10;99.90
37204;DHT22;23098;48.054;10.636;2022-11-20T13:30:28;6.00;99.90
37204;DHT22;23098;48.054;10.636;2022-11-20T13:33:04;5.90;99.90
37204;DHT22;23098;48.054;10.636;2022-11-20T13:35:34;5.80;99.90
37204;DHT22;23098;48.054;10.636;2022-11-20T13:38:09;5.60;99.90
37204;DHT22;23098;48.054;10.636;2022-11-20T13:40:54;5.60;99.90
37204;DHT22;23098;48.054;10.636;2022-11-20T13:43:38;5.60;99.90
37204;DHT22;23098;48.054;10.636;2022-11-20T13:46:07;5.60;99.90
37204;DHT22;23098;48.054;10.636;2022-11-20T13:48:42;5.50;99.90
37204;DHT22;23098;48.054;10.636;2022-11-20T13:57:17;5.50;99.90
37204;DHT22;23098;48.054;10.636;2022-11-20T13:59:58;5.50;99.90
37204;DHT22;23098;48.054;10.636;2022-11-20T14:02:27;5.60;99.90
37204;DHT22;23098;48.054;10.636;2022-11-20T14:04:56;5.60;99.90
37204;DHT22;23098;48.054;10.636;2022-11-20T14:07:25;5.70;99.90
37204;DHT22;23098;48.054;10.636;2022-11-20T14:09:57;5.80;99.90
37204;DHT22;23098;48.054;10.636;2022-11-20T14:12:33;5.80;99.90
37204;DHT22;23098;48.054;10.636;2022-11-20T14:14:59;5.90;99.90
37204;DHT22;23098;48.054;10.636;2022-11-20T14:17:31;5.90;99.90
37204;DHT22;23098;48.054;10.636;2022-11-20T14:20:11;6.10;99.90
37204;DHT22;23098;48.054;10.636;2022-11-20T14:22:38;6.20;99.90
37204;DHT22;23098;48.054;10.636;2022-11-20T14:27:37;6.20;99.90
37204;DHT22;23098;48.054;10.636;2022-11-20T14:30:04;6.20;99.90
37204;DHT22;23098;48.054;10.636;2022-11-20T14:32:31;6.20;99.90
37204;DHT22;23098;48.054;10.636;2022-11-20T14:35:06;6.20;99.90
37204;DHT22;23098;48.054;10.636;2022-11-20T14:37:37;6.20;99.90
37204;DHT22;23098;48.054;10.636;2022-11-20T14:40:21;6.30;99.90
37204;DHT22;23098;48.054;10.636;2022-11-20T14:42:47;6.30;99.90
37204;DHT22;23098;48.054;10.636;2022-11-20T14:45:13;6.20;99.90
37204;DHT22;23098;48.054;10.636;2022-11-20T14:47:39;6.10;99.90
37204;DHT22;23098;48.054;10.636;2022-11-20T14:50:19;6.00;99.90
37204;DHT22;23098;48.054;10.636;2022-11-20T14:52:51;5.90;99.90
37204;DHT22;23098;48.054;10.636;2022-11-20T14:55:35;5.90;99.90
37204;DHT22;23098;48.054;10.636;2022-11-20T14:58:20;5.80;99.90
37204;DHT22;23098;48.054;10.636;2022-11-20T15:01:06;5.80;99.90
37204;DHT22;23098;48.054;10.636;2022-11-20T15:03:39;5.80;99.90
37204;DHT22;23098;48.054;10.636;2022-11-20T15:06:07;5.70;99.90
37204;DHT22;23098;48.054;10.636;2022-11-20T15:08:34;5.70;99.90
37204;DHT22;23098;48.054;10.636;2022-11-20T15:11:00;5.70;99.90
37204;DHT22;23098;48.054;10.636;2022-11-20T15:13:31;5.70;99.90
37204;DHT22;23098;48.054;10.636;2022-11-20T15:16:00;5.70;99.90
37204;DHT22;23098;48.054;10.636;2022-11-20T15:18:38;5.70;99.90
37204;DHT22;23098;48.054;10.636;2022-11-20T15:21:10;5.60;99.90
37204;DHT22;23098;48.054;10.636;2022-11-20T15:23:36;5.50;99.90
37204;DHT22;23098;48.054;10.636;2022-11-20T15:26:04;5.50;99.90
37204;DHT22;23098;48.054;10.636;2022-11-20T15:28:48;5.40;99.90
37204;DHT22;23098;48.054;10.636;2022-11-20T15:31:18;5.40;99.90
37204;DHT22;23098;48.054;10.636;2022-11-20T15:33:45;5.30;99.90
37204;DHT22;23098;48.054;10.636;2022-11-20T15:36:10;5.30;99.90
37204;DHT22;23098;48.054;10.636;2022-11-20T15:38:36;5.30;99.90
37204;DHT22;23098;48.054;10.636;2022-11-20T15:41:02;5.30;99.90
37204;DHT22;23098;48.054;10.636;2022-11-20T15:43:27;5.40;99.90
37204;DHT22;23098;48.054;10.636;2022-11-20T15:46:05;5.50;99.90
37204;DHT22;23098;48.054;10.636;2022-11-20T15:48:38;5.50;99.90
37204;DHT22;23098;48.054;10.636;2022-11-20T15:51:30;5.40;99.90
37204;DHT22;23098;48.054;10.636;2022-11-20T15:53:56;5.40;99.90
37204;DHT22;23098;48.054;10.636;2022-11-20T15:56:23;5.40;99.90
37204;DHT22;23098;48.054;10.636;2022-11-20T15:58:49;5.40;99.90
37204;DHT22;23098;48.054;10.636;2022-11-20T16:01:20;5.30;99.90
37204;DHT22;23098;48.054;10.636;2022-11-20T16:03:46;5.20;99.90
37204;DHT22;23098;48.054;10.636;2022-11-20T16:06:12;5.10;99.90
37204;DHT22;23098;48.054;10.636;2022-11-20T16:08:37;4.90;99.90
37204;DHT22;23098;48.054;10.636;2022-11-20T16:11:04;4.70;99.90
37204;DHT22;23098;48.054;10.636;2022-11-20T16:13:31;4.60;99.90
37204;DHT22;23098;48.054;10.636;2022-11-20T16:16:23;4.50;99.90
37204;DHT22;23098;48.054;10.636;2022-11-20T16:18:51;4.40;99.90
37204;DHT22;23098;48.054;10.636;2022-11-20T16:21:17;4.50;99.90
37204;DHT22;23098;48.054;10.636;2022-11-20T16:23:42;4.50;99.90
37204;DHT22;23098;48.054;10.636;2022-11-20T16:26:13;4.50;99.90
37204;DHT22;23098;48.054;10.636;2022-11-20T16:28:39;4.50;99.90
37204;DHT22;23098;48.054;10.636;2022-11-20T16:31:16;4.40;99.90
37204;DHT22;23098;48.054;10.636;2022-11-20T16:33:42;4.30;99.90
37204;DHT22;23098;48.054;10.636;2022-11-20T16:36:13;4.30;99.90
37204;DHT22;23098;48.054;10.636;2022-11-20T16:38:39;4.10;99.90
37204;DHT22;23098;48.054;10.636;2022-11-20T16:41:05;4.00;99.90
37204;DHT22;23098;48.054;10.636;2022-11-20T16:43:31;3.90;99.90
37204;DHT22;23098;48.054;10.636;2022-11-20T16:45:57;3.80;99.90
37204;DHT22;23098;48.054;10.636;2022-11-20T16:48:22;3.60;99.90
37204;DHT22;23098;48.054;10.636;2022-11-20T16:50:51;3.50;99.90
37204;DHT22;23098;48.054;10.636;2022-11-20T16:53:18;3.50;99.90
37204;DHT22;23098;48.054;10.636;2022-11-20T16:55:44;3.50;99.90